sensor_id;sensor_type;location;lat;lon;timestamp;temperature;humidity
2465;DHT22;1244;54.326;10.074;2023-09-30T00:01:01;12.90;99.90
2465;DHT22;1244;54.326;10.074;2023-09-30T00:03:27;12.80;99.90
2465;DHT22;1244;54.326;10.074;2023-09-30T00:05:53;12.80;99.90
2465;DHT22;1244;54.326;10.074;2023-09-30T00:08:19;12.90;99.90
2465;DHT22;1244;54.326;10.074;2023-09-30T00:10:45;12.80;99.90
2465;DHT22;1244;54.326;10.074;2023-09-30T00:13:11;12.80;99.90
2465;DHT22;1244;54.326;10.074;2023-09-30T00:15:36;12.70;99.90
2465;DHT22;1244;54.326;10.074;2023-09-30T00:18:02;12.80;99.90
2465;DHT22;1244;54.326;10.074;2023-09-30T00:20:28;12.70;99.90
2465;DHT22;1244;54.326;10.074;2023-09-30T00:22:53;12.80;99.90
2465;DHT22;1244;54.326;10.074;2023-09-30T00:25:19;12.70;99.90
2465;DHT22;1244;54.326;10.074;2023-09-30T00:27:46;12.70;99.90
2465;DHT22;1244;54.326;10.074;2023-09-30T00:30:12;12.70;99.90
2465;DHT22;1244;54.326;10.074;2023-09-30T00:32:37;12.80;99.90
2465;DHT22;1244;54.326;10.074;2023-09-30T00:35:05;12.70;99.90
2465;DHT22;1244;54.326;10.074;2023-09-30T00:37:34;12.70;99.90
2465;DHT22;1244;54.326;10.074;2023-09-30T00:39:59;12.80;99.90
2465;DHT22;1244;54.326;10.074;2023-09-30T00:42:25;12.80;99.90
2465;DHT22;1244;54.326;10.074;2023-09-30T00:44:52;12.80;99.90
2465;DHT22;1244;54.326;10.074;2023-09-30T00:47:17;12.80;99.90
2465;DHT22;1244;54.326;10.074;2023-09-30T00:49:43;12.80;99.90
2465;DHT22;1244;54.326;10.074;2023-09-30T00:52:09;12.70;99.90
2465;DHT22;1244;54.326;10.074;2023-09-30T00:54:35;12.60;99.90
2465;DHT22;1244;54.326;10.074;2023-09-30T00:57:03;12.70;99.90
2465;DHT22;1244;54.326;10.074;2023-09-30T00:59:31;12.60;99.90
2465;DHT22;1244;54.326;10.074;2023-09-30T01:01:58;12.60;99.90
2465;DHT22;1244;54.326;10.074;2023-09-30T01:04:27;12.60;99.90
2465;DHT22;1244;54.326;10.074;2023-09-30T01:06:52;12.60;99.90
2465;DHT22;1244;54.326;10.074;2023-09-30T01:09:18;12.60;99.90
2465;DHT22;1244;54.326;10.074;2023-09-30T01:11:44;12.60;99.90
2465;DHT22;1244;54.326;10.074;2023-09-30T01:14:30;12.50;99.90
2465;DHT22;1244;54.326;10.074;2023-09-30T01:16:56;12.60;99.90
2465;DHT22;1244;54.326;10.074;2023-09-30T01:19:23;12.60;99.90
2465;DHT22;1244;54.326;10.074;2023-09-30T01:21:56;12.60;99.90
2465;DHT22;1244;54.326;10.074;2023-09-30T01:24:26;12.60;99.90
2465;DHT22;1244;54.326;10.074;2023-09-30T01:26:51;12.50;99.90
2465;DHT22;1244;54.326;10.074;2023-09-30T01:29:17;12.40;99.90
2465;DHT22;1244;54.326;10.074;2023-09-30T01:31:43;12.40;99.90
2465;DHT22;1244;54.326;10.074;2023-09-30T01:34:08;12.40;99.90
2465;DHT22;1244;54.326;10.074;2023-09-30T01:36:36;12.30;99.90
2465;DHT22;1244;54.326;10.074;2023-09-30T01:39:01;12.30;99.90
2465;DHT22;1244;54.326;10.074;2023-09-30T01:41:28;12.30;99.90
2465;DHT22;1244;54.326;10.074;2023-09-30T01:43:54;12.20;99.90
2465;DHT22;1244;54.326;10.074;2023-09-30T01:46:19;12.40;99.90
2465;DHT22;1244;54.326;10.074;2023-09-30T01:48:45;12.40;99.90
2465;DHT22;1244;54.326;10.074;2023-09-30T01:51:10;12.40;99.90
2465;DHT22;1244;54.326;10.074;2023-09-30T01:53:36;12.30;99.90
2465;DHT22;1244;54.326;10.074;2023-09-30T01:56:02;12.20;99.90
2465;DHT22;1244;54.326;10.074;2023-09-30T01:58:28;12.20;99.90
2465;DHT22;1244;54.326;10.074;2023-09-30T02:00:53;12.10;99.90
2465;DHT22;1244;54.326;10.074;2023-09-30T02:03:19;12.00;99.90
2465;DHT22;1244;54.326;10.074;2023-09-30T02:05:44;12.00;99.90
2465;DHT22;1244;54.326;10.074;2023-09-30T02:08:10;12.10;99.90
2465;DHT22;1244;54.326;10.074;2023-09-30T02:10:36;12.10;99.90
2465;DHT22;1244;54.326;10.074;2023-09-30T02:13:02;11.90;99.90
2465;DHT22;1244;54.326;10.074;2023-09-30T02:15:31;12.00;99.90
2465;DHT22;1244;54.326;10.074;2023-09-30T02:17:57;12.10;99.90
2465;DHT22;1244;54.326;10.074;2023-09-30T02:20:22;12.20;99.90
2465;DHT22;1244;54.326;10.074;2023-09-30T02:22:51;12.30;99.90
2465;DHT22;1244;54.326;10.074;2023-09-30T02:25:17;12.20;99.90
2465;DHT22;1244;54.326;10.074;2023-09-30T02:27:43;12.20;99.90
2465;DHT22;1244;54.326;10.074;2023-09-30T02:30:10;12.30;99.90
2465;DHT22;1244;54.326;10.074;2023-09-30T02:32:39;12.40;99.90
2465;DHT22;1244;54.326;10.074;2023-09-30T02:35:11;12.40;99.90
2465;DHT22;1244;54.326;10.074;2023-09-30T02:37:37;12.50;99.90
2465;DHT22;1244;54.326;10.074;2023-09-30T02:40:03;12.40;99.90
2465;DHT22;1244;54.326;10.074;2023-09-30T02:42:35;12.40;99.90
2465;DHT22;1244;54.326;10.074;2023-09-30T02:45:01;12.40;99.90
2465;DHT22;1244;54.326;10.074;2023-09-30T02:47:26;12.30;99.90
2465;DHT22;1244;54.326;10.074;2023-09-30T02:49:52;12.30;99.90
2465;DHT22;1244;54.326;10.074;2023-09-30T02:52:17;12.30;99.90
2465;DHT22;1244;54.326;10.074;2023-09-30T02:54:43;12.40;99.90
2465;DHT22;1244;54.326;10.074;2023-09-30T02:57:08;12.40;99.90
2465;DHT22;1244;54.326;10.074;2023-09-30T02:59:35;12.20;99.90
2465;DHT22;1244;54.326;10.074;2023-09-30T03:02:01;12.30;99.90
2465;DHT22;1244;54.326;10.074;2023-09-30T03:04:27;12.30;99.90
2465;DHT22;1244;54.326;10.074;2023-09-30T03:06:53;12.40;99.90
2465;DHT22;1244;54.326;10.074;2023-09-30T03:09:22;12.50;99.90
2465;DHT22;1244;54.326;10.074;2023-09-30T03:11:47;12.50;99.90
2465;DHT22;1244;54.326;10.074;2023-09-30T03:14:13;12.50;99.90
2465;DHT22;1244;54.326;10.074;2023-09-30T03:16:39;12.50;99.90
2465;DHT22;1244;54.326;10.074;2023-09-30T03:19:06;12.50;99.90
2465;DHT22;1244;54.326;10.074;2023-09-30T03:21:34;12.60;99.90
2465;DHT22;1244;54.326;10.074;2023-09-30T03:24:04;12.60;99.90
2465;DHT22;1244;54.326;10.074;2023-09-30T03:26:30;12.60;99.90
2465;DHT22;1244;54.326;10.074;2023-09-30T03:28:56;12.30;99.90
2465;DHT22;1244;54.326;10.074;2023-09-30T03:31:22;12.10;99.90
2465;DHT22;1244;54.326;10.074;2023-09-30T03:33:51;12.00;99.90
2465;DHT22;1244;54.326;10.074;2023-09-30T03:36:20;12.00;99.90
2465;DHT22;1244;54.326;10.074;2023-09-30T03:38:45;11.90;99.90
2465;DHT22;1244;54.326;10.074;2023-09-30T03:41:11;11.80;99.90
2465;DHT22;1244;54.326;10.074;2023-09-30T03:43:39;11.80;99.90
2465;DHT22;1244;54.326;10.074;2023-09-30T03:46:07;11.80;99.90
2465;DHT22;1244;54.326;10.074;2023-09-30T03:48:32;11.90;99.90
2465;DHT22;1244;54.326;10.074;2023-09-30T03:51:10;11.90;99.90
2465;DHT22;1244;54.326;10.074;2023-09-30T03:53:42;11.90;99.90
2465;DHT22;1244;54.326;10.074;2023-09-30T03:56:08;12.00;99.90
2465;DHT22;1244;54.326;10.074;2023-09-30T03:58:40;12.00;99.90
2465;DHT22;1244;54.326;10.074;2023-09-30T04:01:06;12.00;99.90
2465;DHT22;1244;54.326;10.074;2023-09-30T04:03:33;12.00;99.90
2465;DHT22;1244;54.326;10.074;2023-09-30T04:05:59;11.90;99.90
2465;DHT22;1244;54.326;10.074;2023-09-30T04:08:24;11.90;99.90
2465;DHT22;1244;54.326;10.074;2023-09-30T04:10:50;11.80;99.90
2465;DHT22;1244;54.326;10.074;2023-09-30T04:13:15;11.80;99.90
2465;DHT22;1244;54.326;10.074;2023-09-30T04:15:42;11.70;99.90
2465;DHT22;1244;54.326;10.074;2023-09-30T04:18:10;11.70;99.90
2465;DHT22;1244;54.326;10.074;2023-09-30T04:20:36;11.60;99.90
2465;DHT22;1244;54.326;10.074;2023-09-30T04:23:05;11.50;99.90
2465;DHT22;1244;54.326;10.074;2023-09-30T04:25:32;11.40;99.90
2465;DHT22;1244;54.326;10.074;2023-09-30T04:27:57;11.40;99.90
2465;DHT22;1244;54.326;10.074;2023-09-30T04:30:23;11.40;99.90
2465;DHT22;1244;54.326;10.074;2023-09-30T04:32:48;11.40;99.90
2465;DHT22;1244;54.326;10.074;2023-09-30T04:35:14;11.40;99.90
2465;DHT22;1244;54.326;10.074;2023-09-30T04:37:40;11.30;99.90
2465;DHT22;1244;54.326;10.074;2023-09-30T04:40:07;11.40;99.90
2465;DHT22;1244;54.326;10.074;2023-09-30T04:42:34;11.30;99.90
2465;DHT22;1244;54.326;10.074;2023-09-30T04:45:04;11.30;99.90
2465;DHT22;1244;54.326;10.074;2023-09-30T04:47:33;11.30;99.90
2465;DHT22;1244;54.326;10.074;2023-09-30T04:49:58;11.30;99.90
2465;DHT22;1244;54.326;10.074;2023-09-30T04:52:24;11.30;99.90
2465;DHT22;1244;54.326;10.074;2023-09-30T04:54:53;11.30;99.90
2465;DHT22;1244;54.326;10.074;2023-09-30T04:57:18;11.30;99.90
2465;DHT22;1244;54.326;10.074;2023-09-30T04:59:45;11.30;99.90
2465;DHT22;1244;54.326;10.074;2023-09-30T05:02:11;11.30;99.90
2465;DHT22;1244;54.326;10.074;2023-09-30T05:04:40;11.30;99.90
2465;DHT22;1244;54.326;10.074;2023-09-30T05:07:05;11.30;99.90
2465;DHT22;1244;54.326;10.074;2023-09-30T05:09:31;11.30;99.90
2465;DHT22;1244;54.326;10.074;2023-09-30T05:11:57;11.20;99.90
2465;DHT22;1244;54.326;10.074;2023-09-30T05:14:22;11.20;99.90
2465;DHT22;1244;54.326;10.074;2023-09-30T05:16:48;11.30;99.90
2465;DHT22;1244;54.326;10.074;2023-09-30T05:19:13;11.20;99.90
2465;DHT22;1244;54.326;10.074;2023-09-30T05:21:39;11.30;99.90
2465;DHT22;1244;54.326;10.074;2023-09-30T05:24:05;11.20;99.90
2465;DHT22;1244;54.326;10.074;2023-09-30T05:26:31;11.20;99.90
2465;DHT22;1244;54.326;10.074;2023-09-30T05:28:56;11.20;99.90
2465;DHT22;1244;54.326;10.074;2023-09-30T05:31:22;11.20;99.90
2465;DHT22;1244;54.326;10.074;2023-09-30T05:33:48;11.20;99.90
2465;DHT22;1244;54.326;10.074;2023-09-30T05:36:13;11.20;99.90
2465;DHT22;1244;54.326;10.074;2023-09-30T05:38:39;11.20;99.90
2465;DHT22;1244;54.326;10.074;2023-09-30T05:41:05;11.30;99.90
2465;DHT22;1244;54.326;10.074;2023-09-30T05:43:32;11.30;99.90
2465;DHT22;1244;54.326;10.074;2023-09-30T05:45:57;11.30;99.90
2465;DHT22;1244;54.326;10.074;2023-09-30T05:48:23;11.40;99.90
2465;DHT22;1244;54.326;10.074;2023-09-30T05:50:49;11.40;99.90
2465;DHT22;1244;54.326;10.074;2023-09-30T05:53:15;11.40;99.90
2465;DHT22;1244;54.326;10.074;2023-09-30T05:55:41;11.50;99.90
2465;DHT22;1244;54.326;10.074;2023-09-30T05:58:14;11.50;99.90
2465;DHT22;1244;54.326;10.074;2023-09-30T06:00:42;11.50;99.90
2465;DHT22;1244;54.326;10.074;2023-09-30T06:03:08;11.60;99.90
2465;DHT22;1244;54.326;10.074;2023-09-30T06:05:34;11.60;99.90
2465;DHT22;1244;54.326;10.074;2023-09-30T06:08:01;11.60;99.90
2465;DHT22;1244;54.326;10.074;2023-09-30T06:10:30;11.70;99.90
2465;DHT22;1244;54.326;10.074;2023-09-30T06:12:56;11.70;99.90
2465;DHT22;1244;54.326;10.074;2023-09-30T06:15:23;11.70;99.90
2465;DHT22;1244;54.326;10.074;2023-09-30T06:17:52;11.80;99.90
2465;DHT22;1244;54.326;10.074;2023-09-30T06:20:20;11.80;99.90
2465;DHT22;1244;54.326;10.074;2023-09-30T06:22:48;11.80;99.90
2465;DHT22;1244;54.326;10.074;2023-09-30T06:25:15;11.90;99.90
2465;DHT22;1244;54.326;10.074;2023-09-30T06:27:43;12.00;99.90
2465;DHT22;1244;54.326;10.074;2023-09-30T06:30:09;12.10;99.90
2465;DHT22;1244;54.326;10.074;2023-09-30T06:32:35;12.10;99.90
2465;DHT22;1244;54.326;10.074;2023-09-30T06:35:02;12.20;99.90
2465;DHT22;1244;54.326;10.074;2023-09-30T06:37:28;12.30;99.90
2465;DHT22;1244;54.326;10.074;2023-09-30T06:39:55;12.40;99.90
2465;DHT22;1244;54.326;10.074;2023-09-30T06:42:21;12.50;99.90
2465;DHT22;1244;54.326;10.074;2023-09-30T06:44:46;12.50;99.90
2465;DHT22;1244;54.326;10.074;2023-09-30T06:47:12;12.50;99.90
2465;DHT22;1244;54.326;10.074;2023-09-30T06:49:38;12.60;99.90
2465;DHT22;1244;54.326;10.074;2023-09-30T06:52:04;12.60;99.90
2465;DHT22;1244;54.326;10.074;2023-09-30T06:54:31;12.70;99.90
2465;DHT22;1244;54.326;10.074;2023-09-30T06:56:56;12.70;99.90
2465;DHT22;1244;54.326;10.074;2023-09-30T06:59:22;12.70;99.90
2465;DHT22;1244;54.326;10.074;2023-09-30T07:01:50;12.70;99.90
2465;DHT22;1244;54.326;10.074;2023-09-30T07:04:16;12.70;99.90
2465;DHT22;1244;54.326;10.074;2023-09-30T07:06:41;12.70;99.90
2465;DHT22;1244;54.326;10.074;2023-09-30T07:09:07;12.80;99.90
2465;DHT22;1244;54.326;10.074;2023-09-30T07:11:32;12.80;99.90
2465;DHT22;1244;54.326;10.074;2023-09-30T07:13:58;12.90;99.90
2465;DHT22;1244;54.326;10.074;2023-09-30T07:16:24;12.90;99.90
2465;DHT22;1244;54.326;10.074;2023-09-30T07:18:49;13.00;99.90
2465;DHT22;1244;54.326;10.074;2023-09-30T07:21:16;13.20;99.90
2465;DHT22;1244;54.326;10.074;2023-09-30T07:23:42;13.30;99.90
2465;DHT22;1244;54.326;10.074;2023-09-30T07:26:07;13.50;99.90
2465;DHT22;1244;54.326;10.074;2023-09-30T07:28:33;13.60;99.90
2465;DHT22;1244;54.326;10.074;2023-09-30T07:30:59;13.80;99.90
2465;DHT22;1244;54.326;10.074;2023-09-30T07:33:24;13.90;99.90
2465;DHT22;1244;54.326;10.074;2023-09-30T07:35:50;13.90;99.90
2465;DHT22;1244;54.326;10.074;2023-09-30T07:38:15;14.00;99.90
2465;DHT22;1244;54.326;10.074;2023-09-30T07:40:41;14.10;99.90
2465;DHT22;1244;54.326;10.074;2023-09-30T07:43:07;14.30;99.90
2465;DHT22;1244;54.326;10.074;2023-09-30T07:45:33;14.50;99.90
2465;DHT22;1244;54.326;10.074;2023-09-30T07:47:58;14.60;99.90
2465;DHT22;1244;54.326;10.074;2023-09-30T07:50:24;14.70;99.90
2465;DHT22;1244;54.326;10.074;2023-09-30T07:52:50;14.60;99.90
2465;DHT22;1244;54.326;10.074;2023-09-30T07:55:15;14.70;99.90
2465;DHT22;1244;54.326;10.074;2023-09-30T07:57:42;14.80;99.90
2465;DHT22;1244;54.326;10.074;2023-09-30T08:00:09;14.90;99.90
2465;DHT22;1244;54.326;10.074;2023-09-30T08:02:43;15.10;99.90
2465;DHT22;1244;54.326;10.074;2023-09-30T08:05:09;15.30;99.90
2465;DHT22;1244;54.326;10.074;2023-09-30T08:07:35;15.40;99.90
2465;DHT22;1244;54.326;10.074;2023-09-30T08:10:04;15.50;99.90
2465;DHT22;1244;54.326;10.074;2023-09-30T08:12:32;15.70;99.90
2465;DHT22;1244;54.326;10.074;2023-09-30T08:14:57;15.90;99.90
2465;DHT22;1244;54.326;10.074;2023-09-30T08:17:23;16.00;99.90
2465;DHT22;1244;54.326;10.074;2023-09-30T08:19:48;16.00;99.90
2465;DHT22;1244;54.326;10.074;2023-09-30T08:22:14;16.10;99.90
2465;DHT22;1244;54.326;10.074;2023-09-30T08:24:40;16.20;99.90
2465;DHT22;1244;54.326;10.074;2023-09-30T08:27:06;16.30;99.90
2465;DHT22;1244;54.326;10.074;2023-09-30T08:29:35;16.30;99.90
2465;DHT22;1244;54.326;10.074;2023-09-30T08:32:02;16.40;99.90
2465;DHT22;1244;54.326;10.074;2023-09-30T08:34:28;16.60;99.90
2465;DHT22;1244;54.326;10.074;2023-09-30T08:36:54;16.70;99.90
2465;DHT22;1244;54.326;10.074;2023-09-30T08:39:19;16.80;99.90
2465;DHT22;1244;54.326;10.074;2023-09-30T08:41:45;16.80;99.90
2465;DHT22;1244;54.326;10.074;2023-09-30T08:44:11;16.90;99.90
2465;DHT22;1244;54.326;10.074;2023-09-30T08:46:39;17.00;99.90
2465;DHT22;1244;54.326;10.074;2023-09-30T08:49:05;17.20;99.90
2465;DHT22;1244;54.326;10.074;2023-09-30T08:51:34;17.20;99.90
2465;DHT22;1244;54.326;10.074;2023-09-30T08:54:01;17.30;99.90
2465;DHT22;1244;54.326;10.074;2023-09-30T08:56:30;17.40;99.90
2465;DHT22;1244;54.326;10.074;2023-09-30T08:58:59;17.40;99.90
2465;DHT22;1244;54.326;10.074;2023-09-30T09:01:26;17.60;99.90
2465;DHT22;1244;54.326;10.074;2023-09-30T09:03:52;17.80;99.90
2465;DHT22;1244;54.326;10.074;2023-09-30T09:06:22;18.00;99.90
2465;DHT22;1244;54.326;10.074;2023-09-30T09:08:48;18.00;99.90
2465;DHT22;1244;54.326;10.074;2023-09-30T09:11:14;18.20;99.90
2465;DHT22;1244;54.326;10.074;2023-09-30T09:13:46;18.40;99.90
2465;DHT22;1244;54.326;10.074;2023-09-30T09:16:15;18.50;99.90
2465;DHT22;1244;54.326;10.074;2023-09-30T09:18:41;18.60;99.90
2465;DHT22;1244;54.326;10.074;2023-09-30T09:21:10;18.50;99.90
2465;DHT22;1244;54.326;10.074;2023-09-30T09:23:47;18.40;99.90
2465;DHT22;1244;54.326;10.074;2023-09-30T09:26:24;18.10;99.90
2465;DHT22;1244;54.326;10.074;2023-09-30T09:28:50;18.00;99.90
2465;DHT22;1244;54.326;10.074;2023-09-30T09:31:27;18.20;99.90
2465;DHT22;1244;54.326;10.074;2023-09-30T09:33:52;18.30;99.90
2465;DHT22;1244;54.326;10.074;2023-09-30T09:36:19;18.30;99.90
2465;DHT22;1244;54.326;10.074;2023-09-30T09:38:48;18.20;99.90
2465;DHT22;1244;54.326;10.074;2023-09-30T09:41:15;18.30;99.90
2465;DHT22;1244;54.326;10.074;2023-09-30T09:43:41;18.50;99.90
2465;DHT22;1244;54.326;10.074;2023-09-30T09:46:08;19.10;99.90
2465;DHT22;1244;54.326;10.074;2023-09-30T09:48:37;18.80;99.90
2465;DHT22;1244;54.326;10.074;2023-09-30T09:51:04;18.30;99.90
2465;DHT22;1244;54.326;10.074;2023-09-30T09:53:34;17.80;99.90
2465;DHT22;1244;54.326;10.074;2023-09-30T09:56:02;17.50;99.90
2465;DHT22;1244;54.326;10.074;2023-09-30T09:58:32;17.20;99.90
2465;DHT22;1244;54.326;10.074;2023-09-30T10:01:01;16.90;99.90
2465;DHT22;1244;54.326;10.074;2023-09-30T10:03:27;16.80;99.90
2465;DHT22;1244;54.326;10.074;2023-09-30T10:05:52;17.50;99.90
2465;DHT22;1244;54.326;10.074;2023-09-30T10:08:21;18.70;99.90
2465;DHT22;1244;54.326;10.074;2023-09-30T10:10:48;19.10;99.90
2465;DHT22;1244;54.326;10.074;2023-09-30T10:19:11;20.00;99.90
2465;DHT22;1244;54.326;10.074;2023-09-30T10:21:37;20.40;99.90
2465;DHT22;1244;54.326;10.074;2023-09-30T10:35:21;21.60;99.90
2465;DHT22;1244;54.326;10.074;2023-09-30T10:37:47;22.20;99.90
2465;DHT22;1244;54.326;10.074;2023-09-30T10:40:27;22.10;99.90
2465;DHT22;1244;54.326;10.074;2023-09-30T10:42:53;21.40;99.90
2465;DHT22;1244;54.326;10.074;2023-09-30T10:50:59;20.80;99.90
2465;DHT22;1244;54.326;10.074;2023-09-30T10:53:26;19.90;99.90
2465;DHT22;1244;54.326;10.074;2023-09-30T10:56:00;19.90;99.90
2465;DHT22;1244;54.326;10.074;2023-09-30T10:58:44;19.60;99.90
2465;DHT22;1244;54.326;10.074;2023-09-30T11:01:12;19.00;99.90
2465;DHT22;1244;54.326;10.074;2023-09-30T11:03:39;19.20;99.90
2465;DHT22;1244;54.326;10.074;2023-09-30T11:06:04;20.50;99.90
2465;DHT22;1244;54.326;10.074;2023-09-30T11:08:30;21.20;99.90
2465;DHT22;1244;54.326;10.074;2023-09-30T11:10:57;21.70;99.90
2465;DHT22;1244;54.326;10.074;2023-09-30T11:13:23;21.30;99.90
2465;DHT22;1244;54.326;10.074;2023-09-30T11:16:00;20.00;99.90
2465;DHT22;1244;54.326;10.074;2023-09-30T11:18:26;19.30;99.90
2465;DHT22;1244;54.326;10.074;2023-09-30T11:21:11;19.00;99.90
2465;DHT22;1244;54.326;10.074;2023-09-30T11:23:39;18.80;99.90
2465;DHT22;1244;54.326;10.074;2023-09-30T11:26:06;18.50;99.90
2465;DHT22;1244;54.326;10.074;2023-09-30T11:28:39;18.50;99.90
2465;DHT22;1244;54.326;10.074;2023-09-30T11:31:11;18.20;99.90
2465;DHT22;1244;54.326;10.074;2023-09-30T11:33:52;19.60;99.90
2465;DHT22;1244;54.326;10.074;2023-09-30T11:36:19;19.40;99.90
2465;DHT22;1244;54.326;10.074;2023-09-30T11:38:47;19.50;99.90
2465;DHT22;1244;54.326;10.074;2023-09-30T11:41:13;19.00;99.90
2465;DHT22;1244;54.326;10.074;2023-09-30T11:43:45;18.80;99.90
2465;DHT22;1244;54.326;10.074;2023-09-30T11:46:23;18.20;99.90
2465;DHT22;1244;54.326;10.074;2023-09-30T11:49:00;17.80;99.90
2465;DHT22;1244;54.326;10.074;2023-09-30T11:51:28;17.70;99.90
2465;DHT22;1244;54.326;10.074;2023-09-30T11:53:54;17.80;99.90
2465;DHT22;1244;54.326;10.074;2023-09-30T11:56:20;17.70;99.90
2465;DHT22;1244;54.326;10.074;2023-09-30T11:58:47;17.50;99.90
2465;DHT22;1244;54.326;10.074;2023-09-30T12:01:14;17.50;99.90
2465;DHT22;1244;54.326;10.074;2023-09-30T12:03:40;17.40;99.90
2465;DHT22;1244;54.326;10.074;2023-09-30T12:06:09;17.40;99.90
2465;DHT22;1244;54.326;10.074;2023-09-30T12:08:39;17.40;99.90
2465;DHT22;1244;54.326;10.074;2023-09-30T12:11:05;17.70;99.90
2465;DHT22;1244;54.326;10.074;2023-09-30T12:13:31;17.70;99.90
2465;DHT22;1244;54.326;10.074;2023-09-30T12:15:57;19.20;99.90
2465;DHT22;1244;54.326;10.074;2023-09-30T12:18:23;20.40;99.90
2465;DHT22;1244;54.326;10.074;2023-09-30T12:20:52;21.20;99.90
2465;DHT22;1244;54.326;10.074;2023-09-30T12:23:18;20.20;99.90
2465;DHT22;1244;54.326;10.074;2023-09-30T12:25:44;20.10;99.90
2465;DHT22;1244;54.326;10.074;2023-09-30T12:28:10;19.50;99.90
2465;DHT22;1244;54.326;10.074;2023-09-30T12:30:36;19.60;99.90
2465;DHT22;1244;54.326;10.074;2023-09-30T12:33:01;20.20;99.90
2465;DHT22;1244;54.326;10.074;2023-09-30T12:35:27;20.80;99.90
2465;DHT22;1244;54.326;10.074;2023-09-30T12:37:53;21.70;99.90
2465;DHT22;1244;54.326;10.074;2023-09-30T12:40:18;22.10;99.90
2465;DHT22;1244;54.326;10.074;2023-09-30T12:42:44;22.10;99.90
2465;DHT22;1244;54.326;10.074;2023-09-30T12:45:11;22.80;99.90
2465;DHT22;1244;54.326;10.074;2023-09-30T12:47:36;22.50;99.90
2465;DHT22;1244;54.326;10.074;2023-09-30T12:50:02;21.80;99.90
2465;DHT22;1244;54.326;10.074;2023-09-30T12:52:28;21.70;99.90
2465;DHT22;1244;54.326;10.074;2023-09-30T12:54:55;21.60;99.90
2465;DHT22;1244;54.326;10.074;2023-09-30T12:57:21;22.30;99.90
2465;DHT22;1244;54.326;10.074;2023-09-30T12:59:47;21.10;99.90
2465;DHT22;1244;54.326;10.074;2023-09-30T13:02:15;21.30;99.90
2465;DHT22;1244;54.326;10.074;2023-09-30T13:04:40;22.00;99.90
2465;DHT22;1244;54.326;10.074;2023-09-30T13:07:09;22.40;99.90
2465;DHT22;1244;54.326;10.074;2023-09-30T13:09:41;23.10;99.90
2465;DHT22;1244;54.326;10.074;2023-09-30T13:12:07;23.10;99.90
2465;DHT22;1244;54.326;10.074;2023-09-30T13:14:33;22.80;99.90
2465;DHT22;1244;54.326;10.074;2023-09-30T13:16:59;22.60;99.90
2465;DHT22;1244;54.326;10.074;2023-09-30T13:19:25;23.00;99.90
2465;DHT22;1244;54.326;10.074;2023-09-30T13:21:50;22.60;99.90
2465;DHT22;1244;54.326;10.074;2023-09-30T13:24:21;22.50;99.90
2465;DHT22;1244;54.326;10.074;2023-09-30T13:26:47;22.00;99.90
2465;DHT22;1244;54.326;10.074;2023-09-30T13:29:17;21.90;99.90
2465;DHT22;1244;54.326;10.074;2023-09-30T13:31:42;22.00;99.90
2465;DHT22;1244;54.326;10.074;2023-09-30T13:34:09;21.50;99.90
2465;DHT22;1244;54.326;10.074;2023-09-30T13:36:35;21.90;99.90
2465;DHT22;1244;54.326;10.074;2023-09-30T13:39:01;21.70;99.90
2465;DHT22;1244;54.326;10.074;2023-09-30T13:41:29;21.60;99.90
2465;DHT22;1244;54.326;10.074;2023-09-30T13:43:55;21.60;99.90
2465;DHT22;1244;54.326;10.074;2023-09-30T13:46:20;21.90;99.90
2465;DHT22;1244;54.326;10.074;2023-09-30T13:48:49;21.80;99.90
2465;DHT22;1244;54.326;10.074;2023-09-30T13:51:18;21.40;99.90
2465;DHT22;1244;54.326;10.074;2023-09-30T13:53:44;20.90;99.90
2465;DHT22;1244;54.326;10.074;2023-09-30T13:56:09;21.50;99.90
2465;DHT22;1244;54.326;10.074;2023-09-30T13:58:36;21.80;99.90
2465;DHT22;1244;54.326;10.074;2023-09-30T14:01:01;22.30;99.90
2465;DHT22;1244;54.326;10.074;2023-09-30T14:03:27;21.90;99.90
2465;DHT22;1244;54.326;10.074;2023-09-30T14:05:54;22.30;99.90
2465;DHT22;1244;54.326;10.074;2023-09-30T14:08:19;22.00;99.90
2465;DHT22;1244;54.326;10.074;2023-09-30T14:10:45;21.50;99.90
2465;DHT22;1244;54.326;10.074;2023-09-30T14:13:10;21.50;99.90
2465;DHT22;1244;54.326;10.074;2023-09-30T14:15:37;21.20;99.90
2465;DHT22;1244;54.326;10.074;2023-09-30T14:18:05;20.90;99.90
2465;DHT22;1244;54.326;10.074;2023-09-30T14:20:31;20.20;99.90
2465;DHT22;1244;54.326;10.074;2023-09-30T14:22:59;20.00;99.90
2465;DHT22;1244;54.326;10.074;2023-09-30T14:25:24;20.10;99.90
2465;DHT22;1244;54.326;10.074;2023-09-30T14:27:50;19.90;99.90
2465;DHT22;1244;54.326;10.074;2023-09-30T14:30:16;19.30;99.90
2465;DHT22;1244;54.326;10.074;2023-09-30T14:32:42;19.10;99.90
2465;DHT22;1244;54.326;10.074;2023-09-30T14:35:08;19.30;99.90
2465;DHT22;1244;54.326;10.074;2023-09-30T14:37:35;19.10;99.90
2465;DHT22;1244;54.326;10.074;2023-09-30T14:40:01;18.70;99.90
2465;DHT22;1244;54.326;10.074;2023-09-30T14:42:30;18.60;99.90
2465;DHT22;1244;54.326;10.074;2023-09-30T14:44:56;18.40;99.90
2465;DHT22;1244;54.326;10.074;2023-09-30T14:47:22;18.20;99.90
2465;DHT22;1244;54.326;10.074;2023-09-30T14:49:47;18.20;99.90
2465;DHT22;1244;54.326;10.074;2023-09-30T14:52:13;18.20;99.90
2465;DHT22;1244;54.326;10.074;2023-09-30T14:54:39;18.40;99.90
2465;DHT22;1244;54.326;10.074;2023-09-30T14:57:05;18.30;99.90
2465;DHT22;1244;54.326;10.074;2023-09-30T14:59:33;18.50;99.90
2465;DHT22;1244;54.326;10.074;2023-09-30T15:01:59;18.60;99.90
2465;DHT22;1244;54.326;10.074;2023-09-30T15:04:25;18.50;99.90
2465;DHT22;1244;54.326;10.074;2023-09-30T15:06:50;18.60;99.90
2465;DHT22;1244;54.326;10.074;2023-09-30T15:09:16;18.60;99.90
2465;DHT22;1244;54.326;10.074;2023-09-30T15:11:41;18.50;99.90
2465;DHT22;1244;54.326;10.074;2023-09-30T15:14:07;18.50;99.90
2465;DHT22;1244;54.326;10.074;2023-09-30T15:16:33;18.20;99.90
2465;DHT22;1244;54.326;10.074;2023-09-30T15:19:00;17.90;99.90
2465;DHT22;1244;54.326;10.074;2023-09-30T15:21:26;17.80;99.90
2465;DHT22;1244;54.326;10.074;2023-09-30T15:23:51;17.70;99.90
2465;DHT22;1244;54.326;10.074;2023-09-30T15:26:18;18.00;99.90
2465;DHT22;1244;54.326;10.074;2023-09-30T15:28:43;18.00;99.90
2465;DHT22;1244;54.326;10.074;2023-09-30T15:31:13;17.90;99.90
2465;DHT22;1244;54.326;10.074;2023-09-30T15:33:38;17.90;99.90
2465;DHT22;1244;54.326;10.074;2023-09-30T15:36:15;17.90;99.90
2465;DHT22;1244;54.326;10.074;2023-09-30T15:38:45;17.80;99.90
2465;DHT22;1244;54.326;10.074;2023-09-30T15:41:12;17.70;99.90
2465;DHT22;1244;54.326;10.074;2023-09-30T15:43:38;17.50;99.90
2465;DHT22;1244;54.326;10.074;2023-09-30T15:46:04;17.40;99.90
2465;DHT22;1244;54.326;10.074;2023-09-30T15:48:30;17.50;99.90
2465;DHT22;1244;54.326;10.074;2023-09-30T15:50:56;17.60;99.90
2465;DHT22;1244;54.326;10.074;2023-09-30T15:53:22;17.70;99.90
2465;DHT22;1244;54.326;10.074;2023-09-30T15:55:48;17.50;99.90
2465;DHT22;1244;54.326;10.074;2023-09-30T15:58:13;17.30;99.90
2465;DHT22;1244;54.326;10.074;2023-09-30T16:00:40;17.30;99.90
2465;DHT22;1244;54.326;10.074;2023-09-30T16:03:09;17.30;99.90
2465;DHT22;1244;54.326;10.074;2023-09-30T16:05:36;17.00;99.90